Latest Weather Observations for Lucas Heights

IDN60801

Issued at 11:33 pm EST Wednesday 27 May 2015 (issued every 30 minutes, with the page automatically refreshed every 10 minutes)

About weather observations | Map of weather stations | Latest weather observations for NSW | Other Formats
Station Details ID: 066023 Name: LUCAS HEIGHTS AWS Lat: -34.05 Lon: 150.98 Height: 140.0 m
Data from the previous 72 hours. | See also: Recent months for locations in New South Wales
Date/Time
EST
Temp
°C
App
Temp
°C
Dew
Point
Rel
Hum
%
Delta-T
°C
Wind Press
QNH
hPa
Press
MSL
hPa
Rain
since 9 am
mm
Dir
 
Spd
km/h
Gust
km/h
Spd
kts
Gust
kts
27/11:15pm 11.8 7.8 8.9 82 1.5 SW 20 22 11 12 1023.1 - 0.0
27/11:00pm 12.2 8.5 9.3 82 1.5 SW 19 22 10 12 1023.1 - 0.0
27/10:45pm 11.5 7.6 8.7 83 1.4 SW 19 22 10 12 1023.0 - 0.0
27/10:30pm 12.3 8.9 9.0 80 1.7 SW 17 19 9 10 1023.0 - 0.0
27/10:15pm 12.9 9.4 10.3 84 1.4 SW 19 19 10 10 1023.0 - 0.0
27/10:00pm 10.8 8.3 8.2 84 1.3 SW 11 17 6 9 1023.1 - 0.0
27/09:45pm 10.8 7.9 8.0 83 1.4 SW 13 17 7 9 1023.2 - 0.0
27/09:30pm 11.2 8.3 8.2 82 1.5 SW 13 15 7 8 1023.3 - 0.0
27/09:15pm 11.7 8.8 8.3 79 1.7 SW 13 15 7 8 1023.3 - 0.0
27/09:00pm 12.3 9.6 8.8 79 1.8 WSW 13 15 7 8 1023.3 - 0.0
27/08:45pm 12.4 9.6 8.6 77 1.9 W 13 17 7 9 1023.4 - 0.0
27/08:30pm 12.8 10.0 8.6 75 2.1 W 13 17 7 9 1023.3 - 0.0
27/08:15pm 13.0 9.9 8.7 75 2.2 W 15 17 8 9 1023.1 - 0.0
27/08:00pm 13.0 10.2 8.4 73 2.3 W 13 17 7 9 1023.1 - 0.0
27/07:45pm 13.6 10.8 8.6 72 2.5 W 13 17 7 9 1023.0 - 0.0
27/07:30pm 14.4 11.3 8.7 68 2.9 W 15 17 8 9 1022.9 - 0.0
27/07:15pm 15.2 12.1 9.0 66 3.2 W 15 19 8 10 1022.8 - 0.0
27/07:00pm 15.0 12.0 9.3 68 2.9 W 15 19 8 10 1022.7 - 0.0
27/06:45pm 15.0 12.5 9.6 70 2.8 W 13 15 7 8 1022.5 - 0.0
27/06:30pm 14.9 12.4 9.6 70 2.8 W 13 15 7 8 1022.4 - 0.0
27/06:15pm 15.2 12.7 9.7 69 2.9 W 13 17 7 9 1022.3 - 0.0
27/06:00pm 15.3 12.8 9.8 69 2.9 WNW 13 15 7 8 1022.2 - 0.0
27/05:45pm 15.4 13.0 9.9 70 2.9 NW 13 17 7 9 1022.1 - 0.0
27/05:30pm 15.5 12.7 9.9 69 2.9 NW 15 17 8 9 1022.0 - 0.0
27/05:15pm 15.6 13.5 9.9 69 3.0 NW 11 13 6 7 1022.0 - 0.0
27/05:00pm 15.8 14.2 10.2 69 3.0 NW 9 11 5 6 1021.8 - 0.0
27/04:45pm 15.8 13.9 10.4 70 2.9 NW 11 13 6 7 1021.7 - 0.0
27/04:30pm 16.3 15.1 10.4 68 3.1 NW 7 9 4 5 1021.7 - 0.0
27/04:15pm 16.7 15.8 10.6 67 3.3 NW 6 9 3 5 1021.7 - 0.0
27/04:00pm 17.0 15.9 10.6 66 3.4 NW 7 9 4 5 1021.7 - 0.0
27/03:45pm 17.6 16.1 10.5 63 3.8 NW 9 11 5 6 1021.8 - 0.0
27/03:30pm 17.8 15.8 10.0 60 4.2 NW 11 15 6 8 1021.8 - 0.0
27/03:15pm 18.1 15.7 9.9 58 4.4 WNW 13 17 7 9 1021.8 - 0.0
27/03:00pm 18.3 16.2 9.9 58 4.5 NW 11 17 6 9 1021.8 - 0.0
27/02:45pm 18.2 16.1 9.7 57 4.5 W 11 17 6 9 1021.9 - 0.0
27/02:30pm 18.1 16.3 9.6 57 4.5 W 9 13 5 7 1021.9 - 0.0
27/02:15pm 18.1 16.7 9.4 57 4.6 WNW 7 13 4 7 1021.8 - 0.0
27/02:00pm 17.7 16.2 9.0 56 4.5 WNW 7 13 4 7 1021.9 - 0.0
27/01:45pm 18.2 16.3 9.0 55 4.8 WNW 9 13 5 7 1022.1 - 0.0
27/01:30pm 17.5 15.5 8.7 56 4.6 WNW 9 13 5 7 1022.2 - 0.0
27/01:15pm 17.5 15.9 8.7 56 4.6 NW 7 15 4 8 1022.3 - 0.0
27/01:00pm 17.4 15.5 8.9 57 4.4 NW 9 17 5 9 1022.5 - 0.0
27/12:45pm 17.0 15.1 9.1 59 4.1 NW 9 13 5 7 1022.7 - 0.0
27/12:30pm 16.9 15.0 8.9 59 4.2 NW 9 15 5 8 1022.9 - 0.0
27/12:15pm 16.8 14.9 9.0 60 4.1 NW 9 15 5 8 1023.3 - 0.0
27/12:00pm 16.5 14.6 8.9 61 3.9 NW 9 15 5 8 1023.6 - 0.0
27/11:45am 16.0 14.5 9.2 64 3.5 WNW 7 13 4 7 1024.0 - 0.0
27/11:30am 15.4 13.5 9.2 66 3.2 WNW 9 15 5 8 1024.2 - 0.0
27/11:15am 15.7 14.1 10.1 69 3.0 WNW 9 13 5 7 1024.6 - 0.0
27/11:00am 15.3 13.5 9.6 69 3.0 WNW 9 13 5 7 1024.8 - 0.0
27/10:45am 15.5 13.1 8.8 64 3.4 W 11 13 6 7 1024.9 - 0.0
27/10:30am 16.4 14.6 9.5 63 3.6 WNW 9 13 5 7 1025.0 - 0.0
27/10:15am 16.6 14.8 9.4 62 3.8 W 9 13 5 7 1025.1 - 0.0
27/10:00am 16.6 15.6 10.4 67 3.3 W 6 11 3 6 1025.2 - 0.0
27/09:45am 15.9 15.0 10.7 71 2.8 SW 6 9 3 5 1025.2 - 0.0
27/09:30am 15.0 13.9 10.7 75 2.3 SW 7 9 4 5 1025.3 - 0.0
27/09:15am 14.3 12.8 10.6 78 2.0 SSW 9 13 5 7 1025.3 - 0.0
27/09:00am 13.7 12.6 10.8 83 1.5 SW 7 15 4 8 1025.3 - 0.0
27/08:45am 12.9 11.1 11.0 88 1.0 WSW 11 17 6 9 1025.4 - 0.0
27/08:30am 11.3 8.5 9.9 91 0.7 WSW 15 19 8 10 1025.5 - 0.0
27/08:15am 10.2 6.4 8.9 92 0.6 WSW 19 20 10 11 1025.4 - 0.0
27/08:00am 10.4 7.0 9.3 93 0.6 WSW 17 19 9 10 1025.2 - 0.0
27/07:45am 8.6 5.6 7.6 93 0.5 WSW 13 17 7 9 1024.9 - 0.0
27/07:30am 8.0 6.0 6.9 93 0.5 WSW 7 9 4 5 1024.7 - 0.0
27/07:15am 7.8 5.7 6.6 92 0.6 WSW 7 7 4 4 1024.5 - 0.0
27/07:00am 7.9 5.8 6.7 92 0.6 WSW 7 7 4 4 1024.4 - 0.0
27/06:45am 8.0 5.9 6.7 91 0.6 WSW 7 9 4 5 1024.5 - 0.0
27/06:30am 8.1 6.0 6.8 91 0.6 WSW 7 7 4 4 1024.3 - 0.0
27/06:15am 8.3 6.3 7.0 91 0.6 WSW 7 9 4 5 1024.5 - 0.0
27/06:00am 8.5 6.7 7.1 91 0.7 WSW 6 7 3 4 1024.5 - 0.0
27/05:45am 8.6 6.8 7.2 91 0.7 SW 6 7 3 4 1024.4 - 0.0
27/05:30am 8.7 6.9 7.3 91 0.7 WSW 6 7 3 4 1024.4 - 0.0
27/05:15am 9.0 7.3 7.5 90 0.7 WSW 6 7 3 4 1024.3 - 0.0
27/05:00am 9.3 7.7 7.8 90 0.7 SW 6 9 3 5 1024.2 - 0.0
27/04:45am 9.1 7.2 7.7 91 0.7 SW 7 9 4 5 1024.3 - 0.0
27/04:30am 9.1 6.8 7.6 90 0.7 SW 9 9 5 5 1024.4 - 0.0
27/04:15am 9.4 7.2 7.8 90 0.8 SW 9 9 5 5 1024.5 - 0.0
27/04:00am 9.6 7.8 8.1 90 0.7 WSW 7 9 4 5 1024.5 - 0.0
27/03:45am 9.3 7.7 7.8 90 0.7 WSW 6 7 3 4 1024.6 - 0.0
27/03:30am 9.2 6.9 7.6 90 0.8 SW 9 9 5 5 1024.8 - 0.0
27/03:15am 9.2 6.9 7.5 89 0.8 SW 9 9 5 5 1025.0 - 0.0
27/03:00am 9.6 7.4 7.9 89 0.8 WSW 9 11 5 6 1025.3 - 0.0
27/02:45am 9.9 7.0 8.2 89 0.8 WSW 13 13 7 7 1025.5 - 0.0
27/02:30am 10.1 7.3 8.6 90 0.7 WSW 13 15 7 8 1025.5 - 0.0
27/02:15am 9.8 7.0 8.4 91 0.7 SW 13 13 7 7 1025.5 - 0.0
27/02:00am 9.6 6.7 8.2 91 0.7 SW 13 13 7 7 1025.4 - 0.0
27/01:45am 9.6 7.1 8.1 90 0.7 SW 11 13 6 7 1025.5 - 0.0
27/01:30am 9.8 7.3 8.3 90 0.7 SW 11 13 6 7 1025.6 - 0.0
27/01:15am 9.8 6.9 8.3 90 0.7 WSW 13 17 7 9 1025.7 - 0.0
27/01:00am 10.7 7.7 9.3 91 0.7 WSW 15 17 8 9 1025.8 - 0.0
27/12:45am 10.5 7.1 9.3 92 0.6 WSW 17 17 9 9 1026.0 - 0.0
27/12:30am 9.4 6.9 8.2 92 0.6 WSW 11 15 6 8 1025.9 - 0.0
27/12:15am 9.5 7.0 8.2 92 0.6 WSW 11 13 6 7 1025.9 - 0.0
27/12:00am 10.3 8.0 9.1 92 0.6 W 11 13 6 7 1025.9 - 0.0
 
Date/Time
EST
Temp
°C
App
Temp
°C
Dew
Point
Rel
Hum
%
Delta-T
°C
Wind Press
QNH
hPa
Press
MSL
hPa
Rain
since 9 am
mm
Dir
 
Spd
km/h
Gust
km/h
Spd
kts
Gust
kts
26/11:45pm 10.1 8.2 9.0 93 0.5 W 9 9 5 5 1025.9 - 0.0
26/11:30pm 9.5 8.4 8.4 93 0.5 SW 4 7 2 4 1025.6 - 0.0
26/11:15pm 9.3 8.5 8.2 93 0.5 SSW 2 4 1 2 1025.7 - 0.0
26/11:00pm 9.2 7.6 8.0 92 0.6 SW 6 7 3 4 1026.1 - 0.0
26/10:45pm 9.4 7.7 8.3 93 0.5 WSW 7 11 4 6 1026.5 - 0.0
26/10:30pm 9.3 7.2 8.1 92 0.6 WSW 9 11 5 6 1026.7 - 0.0
26/10:15pm 9.6 7.5 8.4 92 0.6 WSW 9 9 5 5 1026.8 - 0.0
26/10:00pm 9.8 7.8 8.6 92 0.6 WSW 9 11 5 6 1026.9 - 0.0
26/09:45pm 10.1 8.1 8.8 92 0.6 WSW 9 11 5 6 1027.0 - 0.0
26/09:30pm 10.4 8.9 9.1 92 0.6 W 7 9 4 5 1026.9 - 0.0
26/09:15pm 10.6 9.3 9.3 92 0.7 W 6 9 3 5 1026.9 - 0.0
26/09:00pm 10.3 8.8 9.0 92 0.6 W 7 9 4 5 1026.9 - 0.0
26/08:45pm 10.3 8.9 8.9 91 0.7 W 6 7 3 4 1026.9 - 0.0
26/08:30pm 10.4 8.8 8.9 90 0.7 W 7 9 4 5 1027.0 - 0.0
26/08:15pm 10.7 8.8 9.2 90 0.8 WSW 9 11 5 6 1027.3 - 0.0
26/08:00pm 10.9 9.1 9.4 90 0.8 WSW 9 13 5 7 1027.3 - 0.0
26/07:45pm 10.8 9.3 9.2 90 0.8 W 7 9 4 5 1027.3 - 0.0
26/07:30pm 10.8 8.9 9.1 89 0.9 W 9 11 5 6 1027.4 - 0.0
26/07:15pm 11.0 9.5 9.1 88 1.0 WNW 7 9 4 5 1027.3 - 0.0
26/07:00pm 11.4 10.5 9.4 87 1.0 WNW 4 9 2 5 1027.2 - 0.0
26/06:45pm 11.9 11.1 9.7 86 1.1 WNW 4 4 2 2 1027.0 - 0.0
26/06:30pm 12.0 11.6 9.8 86 1.1 NW 2 4 1 2 1026.9 - 0.0
26/06:15pm 12.1 12.1 9.7 85 1.2 CALM 0 2 0 1 1026.7 - 0.0
26/06:00pm 12.1 12.0 9.6 85 1.3 CALM 0 0 0 0 1026.5 - 0.0
26/05:45pm 12.4 12.4 9.7 83 1.4 CALM 0 2 0 1 1026.5 - 0.0
26/05:30pm 12.7 12.7 9.8 82 1.5 CALM 0 2 0 1 1026.5 - 0.0
26/05:15pm 13.2 12.8 9.9 80 1.7 SE 2 4 1 2 1026.5 - 0.0
26/05:00pm 13.8 13.1 10.1 78 1.9 SE 4 6 2 3 1026.5 - 0.0
26/04:45pm 14.8 14.2 10.5 75 2.3 ESE 4 7 2 4 1026.4 - 0.0
26/04:30pm 15.6 14.7 10.7 72 2.6 ESE 6 7 3 4 1026.4 - 0.0
26/04:15pm 16.3 15.8 10.8 70 3.0 ESE 4 7 2 4 1026.4 - 0.0
26/04:00pm 16.6 16.5 10.7 68 3.2 E 2 6 1 3 1026.4 - 0.0
26/03:45pm 16.7 16.9 10.5 67 3.3 CALM 0 4 0 2 1026.5 - 0.0
26/03:30pm 17.0 16.5 10.7 66 3.4 N 4 4 2 2 1026.5 - 0.0
26/03:15pm 16.9 16.3 10.4 65 3.5 ENE 4 7 2 4 1026.8 - 0.0
26/03:00pm 17.1 16.9 10.5 65 3.5 ESE 2 6 1 3 1026.9 - 0.0
26/02:45pm 17.1 16.6 10.6 65 3.5 SE 4 7 2 4 1026.9 - 0.0
26/02:30pm 17.5 16.5 11.1 66 3.5 SSE 7 9 4 5 1026.9 - 0.0
26/02:15pm 17.1 16.9 10.6 65 3.5 W 2 6 1 3 1027.0 - 0.0
26/02:00pm 16.8 16.6 10.3 65 3.5 WNW 2 6 1 3 1027.1 - 0.0
26/01:45pm 16.5 15.4 10.0 65 3.4 W 6 9 3 5 1027.2 - 0.0
26/01:30pm 16.5 15.4 10.0 65 3.4 W 6 7 3 4 1027.3 - 0.0
26/01:15pm 16.5 15.4 10.1 66 3.4 WSW 6 9 3 5 1027.5 - 0.0
26/01:00pm 16.3 15.0 10.1 66 3.3 W 7 11 4 6 1027.8 - 0.0
26/12:45pm 16.2 15.0 10.3 68 3.1 W 7 13 4 7 1027.9 - 0.0
26/12:30pm 16.1 14.9 10.4 69 3.0 W 7 9 4 5 1028.1 - 0.0
26/12:15pm 16.1 15.0 10.7 70 2.9 W 7 9 4 5 1028.4 - 0.0
26/12:00pm 16.1 15.3 11.1 72 2.7 W 6 9 3 5 1028.6 - 0.0
26/11:45am 15.9 15.0 11.2 73 2.5 W 7 11 4 6 1028.9 - 0.0
26/11:30am 15.6 14.6 11.0 74 2.5 WNW 7 9 4 5 1029.2 - 0.0
26/11:15am 15.5 14.6 11.2 75 2.3 WNW 7 13 4 7 1029.4 - 0.0
26/11:00am 15.1 14.2 11.2 77 2.1 WNW 7 9 4 5 1029.6 - 0.0
26/10:45am 14.6 13.8 10.9 78 2.0 WNW 6 9 3 5 1029.5 - 0.0
26/10:30am 14.4 13.6 10.9 79 1.9 WNW 6 7 3 4 1029.6 - 0.0
26/10:15am 14.3 13.8 10.8 79 1.9 W 4 7 2 4 1029.6 - 0.0
26/10:00am 14.6 14.6 11.1 79 1.9 WSW 2 4 1 2 1029.7 - 0.0
26/09:45am 14.3 13.9 11.2 81 1.7 SW 4 7 2 4 1029.8 - 0.0
26/09:30am 13.1 12.2 10.5 84 1.4 SSW 6 7 3 4 1029.8 - 0.0
26/09:15am 11.9 10.7 9.5 85 1.2 WSW 6 7 3 4 1029.9 - 0.0
26/09:00am 11.4 10.1 9.2 86 1.1 SW 6 7 3 4 1029.8 - 0.0
26/08:45am 11.3 10.5 9.5 89 0.9 SW 4 4 2 2 1029.7 - 0.0
26/08:30am 11.0 9.6 9.6 91 0.7 SSW 7 13 4 7 1029.8 - 0.0
26/08:15am 9.4 6.5 8.2 92 0.6 S 13 15 7 8 1029.7 - 0.0
26/08:00am 8.0 4.4 6.9 93 0.5 S 15 17 8 9 1029.6 - 0.0
26/07:45am 7.4 4.1 6.2 92 0.5 S 13 15 7 8 1029.4 - 0.0
26/07:30am 6.8 3.7 5.6 92 0.5 SSW 11 13 6 7 1029.3 - 0.0
26/07:15am 6.5 3.7 5.3 92 0.5 SSW 9 13 5 7 1029.2 - 0.0
26/07:00am 6.3 3.8 5.0 91 0.6 SSW 7 9 4 5 1029.1 - 0.0
26/06:45am 6.3 3.5 5.0 91 0.6 S 9 9 5 5 1028.9 - 0.0
26/06:30am 6.7 4.3 5.4 91 0.6 SSW 7 9 4 5 1028.9 - 0.0
26/06:15am 6.8 4.1 5.5 91 0.6 SSW 9 13 5 7 1028.7 - 0.0
26/06:00am 6.7 3.2 5.3 91 0.6 S 13 15 7 8 1028.7 - 0.0
26/05:45am 6.9 3.4 5.5 91 0.6 S 13 17 7 9 1028.7 - 0.0
26/05:30am 6.7 2.8 5.3 91 0.6 S 15 17 8 9 1028.6 - 0.0
26/05:15am 6.5 2.2 5.1 91 0.6 S 17 19 9 10 1028.5 - 0.0
26/05:00am 6.3 1.9 4.8 90 0.7 S 17 19 9 10 1028.5 - 0.0
26/04:45am 5.8 0.9 4.3 90 0.6 S 19 20 10 11 1028.4 - 0.0
26/04:30am 5.8 1.3 4.2 89 0.7 S 17 19 9 10 1028.5 - 0.0
26/04:15am 5.9 1.4 4.2 89 0.7 S 17 19 9 10 1028.7 - 0.0
26/04:00am 6.2 2.1 4.4 88 0.8 S 15 17 8 9 1028.8 - 0.0
26/03:45am 6.5 2.8 4.6 88 0.8 S 13 17 7 9 1028.8 - 0.0
26/03:30am 7.0 3.4 5.2 88 0.8 S 13 13 7 7 1028.9 - 0.0
26/03:15am 7.0 3.4 5.2 88 0.8 SSW 13 13 7 7 1029.1 - 0.0
26/03:00am 6.5 2.8 4.7 88 0.8 S 13 15 7 8 1029.1 - 0.0
26/02:45am 6.7 3.4 4.7 87 0.9 SSW 11 11 6 6 1029.1 - 0.0
26/02:30am 6.9 3.6 4.7 86 1.0 SSW 11 13 6 7 1029.3 - 0.0
26/02:15am 7.3 4.0 4.7 83 1.1 SSW 11 13 6 7 1029.3 - 0.0
26/02:00am 8.9 6.3 6.3 84 1.2 S 9 11 5 6 1029.3 - 0.0
26/01:45am 9.0 6.6 7.0 87 0.9 S 9 13 5 7 1029.3 - 0.0
26/01:30am 8.0 4.3 6.2 88 0.8 SSW 15 19 8 10 1029.3 - 0.0
26/01:15am 7.8 4.1 6.2 90 0.7 SSW 15 19 8 10 1029.3 - 0.0
26/01:00am 7.8 3.7 6.3 90 0.7 SSW 17 20 9 11 1029.3 - 0.0
26/12:45am 7.0 2.4 5.6 91 0.6 SSW 19 20 10 11 1029.4 - 0.0
26/12:30am 7.1 2.9 5.6 90 0.7 SSW 17 20 9 11 1029.4 - 0.0
26/12:15am 7.2 3.0 5.7 90 0.7 SSW 17 20 9 11 1029.4 - 0.0
26/12:00am 7.5 3.4 6.2 91 0.6 SSW 17 22 9 12 1029.6 - 0.0
 
Date/Time
EST
Temp
°C
App
Temp
°C
Dew
Point
Rel
Hum
%
Delta-T
°C
Wind Press
QNH
hPa
Press
MSL
hPa
Rain
since 9 am
mm
Dir
 
Spd
km/h
Gust
km/h
Spd
kts
Gust
kts
25/11:45pm 7.4 2.9 6.0 91 0.6 SSW 19 22 10 12 1029.7 - 0.0
25/11:30pm 7.2 2.6 5.8 91 0.6 SSW 19 22 10 12 1029.7 - 0.0
25/11:15pm 7.6 3.1 6.2 91 0.6 SSW 19 22 10 12 1029.8 - 0.0
25/11:00pm 7.9 3.5 6.5 91 0.6 SSW 19 22 10 12 1030.0 - 0.0
25/10:45pm 7.6 3.1 6.2 91 0.6 SSW 19 24 10 13 1029.9 - 0.0
25/10:30pm 7.9 3.8 6.4 90 0.7 SSW 17 22 9 12 1029.9 - 0.0
25/10:15pm 8.3 5.5 6.8 90 0.7 SW 11 13 6 7 1029.8 - 0.0
25/10:00pm 8.4 6.3 6.8 90 0.7 SW 7 11 4 6 1029.9 - 0.0
25/09:45pm 8.6 6.2 6.8 88 0.8 SSW 9 9 5 5 1029.9 - 0.0
25/09:30pm 8.9 6.1 7.0 88 0.9 WSW 11 13 6 7 1030.0 - 0.0
25/09:15pm 9.8 6.9 8.0 88 0.9 WSW 13 15 7 8 1030.1 - 0.0
25/09:00pm 9.3 6.2 7.4 88 0.9 WSW 13 15 7 8 1030.1 - 0.0
25/08:45pm 9.3 6.2 7.2 87 1.0 WSW 13 15 7 8 1030.0 - 0.0
25/08:30pm 10.2 7.2 7.9 86 1.1 WSW 13 13 7 7 1029.9 - 0.0
25/08:15pm 10.7 7.9 8.4 86 1.1 WSW 13 13 7 7 1029.8 - 0.0
25/08:00pm 10.1 7.1 7.8 86 1.1 WSW 13 15 7 8 1029.8 - 0.0
25/07:45pm 10.6 8.4 8.0 84 1.3 W 9 11 5 6 1029.6 - 0.0
25/07:30pm 11.4 9.5 8.9 84 1.3 W 9 13 5 7 1029.6 - 0.0
25/07:15pm 11.3 9.3 8.7 84 1.3 W 9 13 5 7 1029.5 - 0.0
25/07:00pm 11.4 9.8 8.8 84 1.3 WSW 7 9 4 5 1029.3 - 0.0
25/06:45pm 11.3 9.8 8.6 83 1.3 W 6 7 3 4 1029.2 - 0.0
25/06:30pm 11.9 10.5 8.9 82 1.5 WSW 6 7 3 4 1029.0 - 0.0
25/06:15pm 12.6 11.3 9.2 80 1.7 W 6 7 3 4 1028.8 - 0.0
25/06:00pm 13.5 12.2 9.9 79 1.9 W 7 9 4 5 1028.7 - 0.0
25/05:45pm 13.4 11.7 10.0 80 1.8 WNW 9 9 5 5 1028.6 - 0.0
25/05:30pm 12.9 11.1 9.6 80 1.7 NW 9 9 5 5 1028.7 - 0.0
25/05:15pm 13.3 12.0 9.8 79 1.8 NNW 7 9 4 5 1028.7 - 0.0
25/05:00pm 13.7 12.4 10.1 79 1.9 NW 7 9 4 5 1028.9 - 0.0
25/04:45pm 14.1 13.0 10.0 76 2.1 NW 6 9 3 5 1028.8 - 0.0
25/04:30pm 14.6 13.6 10.2 75 2.3 NW 6 7 3 4 1028.8 - 0.0
25/04:15pm 15.1 14.1 10.3 73 2.5 NNW 6 7 3 4 1028.8 - 0.0
25/04:00pm 15.7 14.7 10.2 70 2.9 NNW 6 7 3 4 1028.7 - 0.0
25/03:45pm 16.0 14.9 10.1 68 3.1 NW 6 7 3 4 1028.9 - 0.0
25/03:30pm 16.2 15.1 10.1 67 3.2 NW 6 9 3 5 1028.8 - 0.0
25/03:15pm 16.2 14.6 10.1 67 3.2 NNW 9 13 5 7 1028.8 - 0.0
25/03:00pm 16.2 14.5 9.8 66 3.4 NNW 9 13 5 7 1028.7 - 0.0
25/02:45pm 16.2 14.5 9.7 65 3.4 NNW 9 15 5 8 1028.8 - 0.0
25/02:30pm 16.2 14.9 9.8 66 3.4 NNW 7 13 4 7 1028.9 - 0.0
25/02:15pm 16.0 14.8 9.7 66 3.3 NNW 6 9 3 5 1028.9 - 0.0
25/02:00pm 15.7 14.2 9.3 65 3.3 NW 7 11 4 6 1029.1 - 0.0
25/01:45pm 15.8 13.5 9.0 64 3.5 NW 11 13 6 7 1029.3 - 0.0
25/01:30pm 16.0 14.1 9.0 63 3.6 WNW 9 15 5 8 1029.5 - 0.0
25/01:15pm 16.1 14.2 9.0 63 3.7 NW 9 15 5 8 1029.4 - 0.0
25/01:00pm 16.7 15.3 9.7 63 3.7 NW 7 15 4 8 1029.4 - 0.0
25/12:45pm 16.2 14.8 9.4 64 3.6 NW 7 13 4 7 1029.5 - 0.0
25/12:30pm 15.9 14.5 9.5 66 3.3 NW 7 11 4 6 1029.7 - 0.0
25/12:15pm 15.9 14.6 9.9 67 3.2 NW 7 11 4 6 1030.0 - 0.0
25/12:00pm 15.2 14.0 9.4 68 3.0 NW 6 9 3 5 1030.2 - 0.0
25/11:45am 15.4 14.1 9.2 66 3.2 NW 6 9 3 5 1030.4 - 0.0
25/11:30am 15.7 15.0 10.0 69 3.0 NW 4 7 2 4 1030.8 - 0.0
25/11:15am 15.4 14.3 9.9 70 2.9 W 6 11 3 6 1031.2 - 0.0
25/11:00am 14.8 13.1 9.7 71 2.7 W 9 13 5 7 1031.6 - 0.0
25/10:45am 14.5 12.8 9.9 74 2.4 WNW 9 13 5 7 1031.5 - 0.0
25/10:30am 14.2 12.4 9.6 74 2.4 W 9 13 5 7 1031.8 - 0.0
25/10:15am 13.7 11.5 9.2 74 2.3 WNW 11 13 6 7 1032.0 - 0.0
25/10:00am 13.9 11.7 9.2 73 2.4 W 11 17 6 9 1032.0 - 0.0
25/09:45am 14.3 12.5 9.5 73 2.5 W 9 17 5 9 1032.0 - 0.0
25/09:30am 14.2 12.5 9.8 75 2.3 W 9 17 5 9 1032.1 - 0.0
25/09:15am 13.8 11.9 10.5 80 1.7 WSW 11 17 6 9 1032.0 - 0.0
25/09:00am 12.9 11.4 10.6 86 1.2 WSW 9 13 5 7 1031.8 - 0.0
25/08:45am 11.9 9.9 10.0 88 1.0 SW 11 13 6 7 1031.8 - 0.0
25/08:30am 11.4 8.9 9.8 90 0.8 SW 13 15 7 8 1031.8 - 0.0
25/08:15am 10.8 7.9 9.6 92 0.6 SW 15 17 8 9 1031.9 - 0.0
25/08:00am 9.4 5.8 8.3 93 0.5 SW 17 19 9 10 1031.9 - 0.0
25/07:45am 8.4 4.9 7.2 92 0.6 SW 15 19 8 10 1031.9 - 0.0
25/07:30am 8.2 4.7 7.0 92 0.6 WSW 15 17 8 9 1031.8 - 0.0
25/07:15am 7.9 4.3 6.8 93 0.5 WSW 15 17 8 9 1031.8 - 0.0
25/07:00am 7.5 4.2 6.3 92 0.6 WSW 13 17 7 9 1031.7 - 0.0
25/06:45am 7.3 3.9 6.1 92 0.5 WSW 13 15 7 8 1031.6 - 0.0
25/06:30am 7.3 3.9 6.1 92 0.5 WSW 13 17 7 9 1031.5 - 0.0
25/06:15am 7.6 3.9 6.4 92 0.6 WSW 15 17 8 9 1031.6 - 0.0
25/06:00am 7.4 3.7 6.1 91 0.6 WSW 15 19 8 10 1031.5 - 0.0
25/05:45am 7.3 3.5 5.9 91 0.6 WSW 15 17 8 9 1031.4 - 0.0
25/05:30am 7.3 3.9 5.9 91 0.6 WSW 13 15 7 8 1031.3 - 0.0
25/05:15am 7.3 3.9 5.8 90 0.7 WSW 13 15 7 8 1031.2 - 0.0
25/05:00am 7.3 3.9 5.7 89 0.7 WSW 13 13 7 7 1031.1 - 0.0
25/04:45am 7.2 3.7 5.4 88 0.8 W 13 13 7 7 1031.1 - 0.0
25/04:30am 7.7 4.3 5.7 87 0.9 W 13 15 7 8 1031.2 - 0.0
25/04:15am 9.5 6.5 7.7 88 0.9 W 13 15 7 8 1031.3 - 0.0
25/04:00am 8.8 5.3 7.1 89 0.8 W 15 17 8 9 1031.4 - 0.0
25/03:45am 9.4 6.0 7.8 90 0.8 W 15 17 8 9 1031.4 - 0.0
25/03:30am 8.5 5.0 7.0 90 0.7 W 15 17 8 9 1031.4 - 0.0
25/03:15am 8.4 4.8 6.9 90 0.7 W 15 17 8 9 1031.6 - 0.0
25/03:00am 10.2 6.7 8.9 92 0.6 W 17 19 9 10 1031.7 - 0.0
25/02:45am 10.2 6.5 9.3 94 0.5 W 19 19 10 10 1031.9 - 0.0
25/02:30am 7.2 3.5 6.2 93 0.5 WSW 15 19 8 10 1031.9 - 0.0
25/02:15am 6.9 3.1 5.9 93 0.5 WSW 15 17 8 9 1031.9 - 0.0
25/02:00am 6.9 3.1 5.9 93 0.5 W 15 17 8 9 1031.9 - 0.0
25/01:45am 6.8 3.4 5.7 93 0.5 W 13 15 7 8 1031.9 - 0.0
25/01:30am 7.0 4.0 6.0 93 0.5 W 11 15 6 8 1032.0 - 0.0
25/01:15am 6.9 3.9 5.9 93 0.5 W 11 13 6 7 1032.0 - 0.0
25/01:00am 7.0 4.4 6.0 93 0.5 W 9 11 5 6 1032.1 - 0.0
25/12:45am 7.2 5.0 6.1 93 0.5 W 7 11 4 6 1032.2 - 0.0
25/12:30am 7.3 5.1 6.2 93 0.5 W 7 9 4 5 1032.4 - 0.0
25/12:15am 7.1 4.5 5.9 92 0.5 W 9 9 5 5 1032.4 - 0.0
25/12:00am 7.1 4.5 6.0 93 0.5 WSW 9 11 5 6 1032.6 - 0.0
 
Date/Time
EST
Temp
°C
App
Temp
°C
Dew
Point
Rel
Hum
%
Delta-T
°C
Wind Press
QNH
hPa
Press
MSL
hPa
Rain
since 9 am
mm
Dir
 
Spd
km/h
Gust
km/h
Spd
kts
Gust
kts
24/11:45pm 7.0 4.0 5.9 93 0.5 WSW 11 11 6 6 1032.6 - 0.0

Other Formats:

Comma delimited format used in spreadsheet applications
http://www.bom.gov.au/fwo/IDN60801/IDN60801.95757.axf

JavaScript Object Notation format (JSON) in row-major order
http://www.bom.gov.au/fwo/IDN60801/IDN60801.95757.json